createdAt,value
2018-09-15T00:01:54.719Z,77.84
2018-09-15T00:04:22.991Z,79.16
2018-09-15T00:06:52.286Z,78.94
2018-09-15T00:09:20.577Z,79.84
2018-09-15T00:11:48.884Z,80.12
2018-09-15T00:14:17.163Z,80.02
2018-09-15T00:16:45.444Z,80.05
2018-09-15T00:19:13.736Z,79.76
2018-09-15T00:21:42.072Z,79.40
2018-09-15T00:24:10.342Z,80.44
2018-09-15T00:26:38.632Z,80.41
2018-09-15T00:29:07.024Z,80.41
2018-09-15T00:31:35.775Z,80.47
2018-09-15T00:34:04.048Z,79.51
2018-09-15T00:36:32.328Z,80.08
2018-09-15T00:39:00.688Z,79.91
2018-09-15T00:41:28.930Z,79.01
2018-09-15T00:43:57.205Z,78.94
2018-09-15T00:46:25.495Z,78.12
2018-09-15T00:48:53.782Z,76.95
2018-09-15T00:51:22.054Z,75.81
2018-09-15T00:53:50.351Z,75.44
2018-09-15T00:56:18.626Z,75.32
2018-09-15T00:58:46.995Z,76.37
2018-09-15T01:01:15.264Z,76.56
2018-09-15T01:03:43.567Z,75.04
2018-09-15T01:06:12.051Z,75.38
2018-09-15T01:08:40.338Z,75.66
2018-09-15T01:11:08.618Z,75.82
2018-09-15T01:13:37.423Z,75.18
2018-09-15T01:16:05.687Z,74.77
2018-09-15T01:18:34.042Z,75.19
2018-09-15T01:21:02.323Z,75.42
2018-09-15T01:23:30.616Z,75.67
2018-09-15T01:25:58.952Z,76.42
2018-09-15T01:28:27.176Z,76.53
2018-09-15T01:30:55.480Z,77.42
2018-09-15T01:33:23.731Z,77.71
2018-09-15T01:35:51.994Z,76.52
2018-09-15T01:38:20.279Z,76.73
2018-09-15T01:40:48.555Z,77.02
2018-09-15T01:43:16.838Z,76.85
2018-09-15T01:45:45.111Z,77.21
2018-09-15T01:48:13.395Z,76.88
2018-09-15T01:50:41.654Z,77.09
2018-09-15T01:53:09.938Z,77.21
2018-09-15T01:55:38.250Z,78.55
2018-09-15T01:58:06.540Z,77.78
2018-09-15T02:00:34.842Z,78.52
2018-09-15T02:03:03.157Z,78.00
2018-09-15T02:05:31.469Z,78.08
2018-09-15T02:07:59.750Z,77.58
2018-09-15T02:10:28.041Z,76.79
2018-09-15T02:12:56.323Z,76.57
2018-09-15T02:15:24.615Z,76.68
2018-09-15T02:17:52.887Z,76.88
2018-09-15T02:20:21.199Z,76.72
2018-09-15T02:22:49.545Z,76.99
2018-09-15T02:25:17.791Z,76.49
2018-09-15T02:27:46.075Z,77.26
2018-09-15T02:30:14.370Z,76.95
2018-09-15T02:32:42.674Z,77.27
2018-09-15T02:35:10.967Z,77.59
2018-09-15T02:37:39.230Z,77.38
2018-09-15T02:40:07.556Z,77.18
2018-09-15T02:42:36.147Z,77.42
2018-09-15T02:45:04.470Z,77.35
2018-09-15T02:47:32.782Z,76.42
2018-09-15T02:50:01.071Z,77.31
2018-09-15T02:52:29.355Z,76.83
2018-09-15T02:54:57.655Z,77.41
2018-09-15T02:57:25.946Z,77.25
2018-09-15T02:59:54.259Z,77.01
2018-09-15T03:02:22.716Z,77.48
2018-09-15T03:04:51.027Z,76.94
2018-09-15T03:07:20.308Z,77.00
2018-09-15T03:09:48.619Z,76.33
2018-09-15T03:12:16.918Z,77.24
2018-09-15T03:14:45.204Z,78.42
2018-09-15T03:17:13.516Z,78.35
2018-09-15T03:19:41.823Z,78.43
2018-09-15T03:22:10.230Z,77.92
2018-09-15T03:24:38.778Z,78.20
2018-09-15T03:27:07.082Z,78.13
2018-09-15T03:29:35.343Z,77.66
2018-09-15T03:32:03.647Z,77.91
2018-09-15T03:34:31.967Z,77.37
2018-09-15T03:37:00.262Z,77.84
2018-09-15T03:39:28.855Z,78.23
2018-09-15T03:41:57.163Z,79.00
2018-09-15T03:44:25.446Z,78.72
2018-09-15T03:46:53.758Z,79.39
2018-09-15T03:49:22.028Z,79.97
2018-09-15T03:51:50.939Z,79.54
2018-09-15T03:54:20.725Z,79.01
2018-09-15T03:56:49.338Z,79.28
2018-09-15T03:59:18.094Z,79.15
2018-09-15T04:01:47.223Z,78.50
2018-09-15T04:04:15.483Z,79.25
2018-09-15T04:06:43.783Z,79.40
2018-09-15T04:09:12.345Z,79.44
2018-09-15T04:11:40.636Z,78.80
2018-09-15T04:14:09.398Z,79.38
2018-09-15T04:16:37.890Z,78.91
2018-09-15T04:19:06.191Z,79.33
2018-09-15T04:21:34.499Z,79.56
2018-09-15T04:24:02.782Z,80.01
2018-09-15T04:26:31.063Z,80.48
2018-09-15T04:28:59.352Z,80.87
2018-09-15T04:31:27.610Z,81.49
2018-09-15T04:33:55.922Z,81.60
2018-09-15T04:36:24.196Z,81.94
2018-09-15T04:38:52.515Z,81.91
2018-09-15T04:41:20.917Z,82.38
2018-09-15T04:43:49.419Z,82.27
2018-09-15T04:46:17.699Z,81.55
2018-09-15T04:48:46.995Z,81.27
2018-09-15T04:51:15.267Z,81.23
2018-09-15T04:53:43.559Z,80.91
2018-09-15T04:56:11.840Z,81.37
2018-09-15T04:58:40.155Z,81.46
2018-09-15T05:01:08.414Z,81.51
2018-09-15T05:03:36.735Z,81.14
2018-09-15T05:06:05.000Z,81.81
2018-09-15T05:08:33.775Z,81.32
2018-09-15T05:11:02.031Z,81.62
2018-09-15T05:13:30.535Z,81.32
2018-09-15T05:15:58.815Z,80.61
2018-09-15T05:18:27.107Z,80.16
2018-09-15T05:20:55.399Z,79.68
2018-09-15T05:23:23.707Z,80.05
2018-09-15T05:25:52.379Z,80.07
2018-09-15T05:28:20.667Z,79.53
2018-09-15T05:30:48.948Z,78.81
2018-09-15T05:33:17.255Z,79.32
2018-09-15T05:35:45.802Z,79.04
2018-09-15T05:38:14.103Z,79.77
2018-09-15T05:40:42.406Z,78.78
2018-09-15T05:43:10.799Z,78.51
2018-09-15T05:45:39.075Z,77.72
2018-09-15T05:48:07.382Z,77.76
2018-09-15T05:50:35.642Z,77.37
2018-09-15T05:53:03.915Z,76.72
2018-09-15T05:55:32.225Z,76.50
2018-09-15T05:58:00.591Z,75.45
2018-09-15T06:00:28.958Z,74.17
2018-09-15T06:02:57.224Z,75.08
2018-09-15T06:05:25.803Z,74.71
2018-09-15T06:07:54.087Z,74.45
2018-09-15T06:10:22.388Z,73.38
2018-09-15T06:12:50.679Z,72.77
2018-09-15T06:15:18.976Z,72.52
2018-09-15T06:17:47.654Z,72.25
2018-09-15T06:20:16.460Z,71.67
2018-09-15T06:22:44.727Z,72.48
2018-09-15T06:25:13.043Z,72.45
2018-09-15T06:27:41.663Z,72.75
2018-09-15T06:30:09.976Z,73.11
2018-09-15T06:32:38.250Z,65.99
2018-09-15T06:35:06.551Z,55.97
2018-09-15T06:37:34.815Z,52.54
2018-09-15T06:40:03.406Z,51.29
2018-09-15T06:42:31.683Z,49.95
2018-09-15T06:44:59.988Z,44.17
2018-09-15T06:47:28.487Z,42.66
2018-09-15T06:49:56.790Z,43.34
2018-09-15T06:52:25.063Z,38.71
2018-09-15T06:54:53.384Z,39.15
2018-09-15T06:57:21.692Z,45.21
2018-09-15T06:59:51.011Z,41.68
2018-09-15T07:02:19.618Z,40.29
2018-09-15T07:04:47.935Z,39.12
2018-09-15T07:07:16.215Z,34.85
2018-09-15T07:09:44.507Z,31.87
2018-09-15T07:12:13.136Z,33.00
2018-09-15T07:14:41.428Z,34.71
2018-09-15T07:17:09.723Z,33.83
2018-09-15T07:19:37.999Z,36.83
2018-09-15T07:22:06.374Z,36.83
2018-09-15T07:24:34.652Z,32.48
2018-09-15T07:27:02.971Z,31.13
2018-09-15T07:29:31.243Z,31.41
2018-09-15T07:31:59.588Z,32.75
2018-09-15T07:34:27.835Z,31.15
2018-09-15T07:36:56.129Z,29.30
2018-09-15T07:39:24.426Z,29.95
2018-09-15T07:41:52.726Z,32.48
2018-09-15T07:44:20.991Z,31.07
2018-09-15T07:46:49.639Z,31.38
2018-09-15T07:49:17.934Z,27.89
2018-09-15T07:51:46.287Z,27.46
2018-09-15T07:54:14.553Z,32.05
2018-09-15T07:56:42.882Z,30.40
2018-09-15T07:59:11.187Z,30.89
2018-09-15T08:01:39.490Z,28.56
2018-09-15T08:04:07.798Z,30.78
2018-09-15T08:06:36.120Z,30.28
2018-09-15T08:09:05.143Z,27.71
2018-09-15T08:11:33.455Z,29.74
2018-09-15T08:14:01.734Z,32.99
2018-09-15T08:16:30.039Z,28.59
2018-09-15T08:18:58.335Z,29.16
2018-09-15T08:21:26.643Z,29.01
2018-09-15T08:23:55.339Z,27.04
2018-09-15T08:26:23.747Z,25.28
2018-09-15T08:28:52.299Z,28.81
2018-09-15T08:31:20.640Z,26.97
2018-09-15T08:33:48.942Z,28.10
2018-09-15T08:36:17.255Z,24.81
2018-09-15T08:38:45.547Z,22.88
2018-09-15T08:41:13.822Z,26.55
2018-09-15T08:43:42.130Z,25.00
2018-09-15T08:46:10.387Z,25.00
2018-09-15T08:48:38.699Z,25.21
2018-09-15T08:51:07.143Z,25.15
2018-09-15T08:53:35.447Z,26.09
2018-09-15T08:56:04.182Z,25.95
2018-09-15T08:58:32.862Z,25.28
2018-09-15T09:01:01.178Z,25.12
2018-09-15T09:03:29.502Z,27.70
2018-09-15T09:05:57.787Z,25.46
2018-09-15T09:08:26.100Z,22.04
2018-09-15T09:10:54.470Z,23.87
2018-09-15T09:13:22.762Z,23.66
2018-09-15T09:15:51.044Z,21.81
2018-09-15T09:18:19.335Z,25.67
2018-09-15T09:20:48.247Z,23.15
2018-09-15T09:23:16.553Z,20.81
2018-09-15T09:25:44.873Z,20.41
2018-09-15T09:28:13.523Z,22.23
2018-09-15T09:30:41.822Z,22.35
2018-09-15T09:33:10.155Z,21.46
2018-09-15T09:35:38.799Z,18.46
2018-09-15T09:38:07.141Z,20.29
2018-09-15T09:40:35.451Z,26.22
2018-09-15T09:43:03.742Z,22.07
2018-09-15T09:45:32.045Z,25.77
2018-09-15T09:48:00.404Z,24.22
2018-09-15T09:50:28.635Z,23.76
2018-09-15T09:52:56.914Z,26.71
2018-09-15T09:55:25.224Z,29.74
2018-09-15T09:57:53.511Z,24.90
2018-09-15T10:00:26.958Z,23.55
2018-09-15T10:02:56.082Z,21.77
2018-09-15T10:05:24.372Z,20.50
2018-09-15T10:07:52.650Z,24.59
2018-09-15T10:10:20.959Z,29.32
2018-09-15T10:12:49.615Z,33.66
2018-09-15T10:15:17.943Z,31.06
2018-09-15T10:17:46.235Z,32.92
2018-09-15T10:20:14.939Z,35.68
2018-09-15T10:22:44.008Z,34.15
2018-09-15T10:25:12.298Z,35.46
2018-09-15T10:27:41.485Z,38.43
2018-09-15T10:30:10.152Z,40.86
2018-09-15T10:32:38.975Z,41.79
2018-09-15T10:35:07.836Z,43.95
2018-09-15T10:37:36.487Z,44.58
2018-09-15T10:40:05.211Z,44.58
2018-09-15T10:42:33.490Z,44.63
2018-09-15T10:45:02.830Z,43.86
2018-09-15T10:47:32.361Z,35.47
2018-09-15T10:50:00.659Z,35.02
2018-09-15T10:52:29.507Z,37.33
2018-09-15T10:54:58.051Z,40.67
2018-09-15T10:57:26.662Z,40.78
2018-09-15T10:59:55.689Z,40.69
2018-09-15T11:02:24.963Z,39.60
2018-09-15T11:04:53.792Z,39.40
2018-09-15T11:07:22.184Z,40.04
2018-09-15T11:09:51.270Z,42.01
2018-09-15T11:12:19.587Z,43.12
2018-09-15T11:14:49.307Z,42.86
2018-09-15T11:17:18.011Z,43.04
2018-09-15T11:19:46.805Z,42.00
2018-09-15T11:22:15.127Z,40.08
2018-09-15T11:24:43.448Z,39.31
2018-09-15T11:27:11.766Z,40.26
2018-09-15T11:29:40.391Z,39.61
2018-09-15T11:32:08.730Z,44.81
2018-09-15T11:34:37.347Z,43.35
2018-09-15T11:37:05.910Z,44.21
2018-09-15T11:39:34.174Z,43.84
2018-09-15T11:42:02.472Z,45.53
2018-09-15T11:44:30.755Z,43.59
2018-09-15T11:46:59.457Z,44.33
2018-09-15T11:49:28.275Z,45.53
2018-09-15T11:51:56.584Z,45.46
2018-09-15T11:54:25.091Z,46.03
2018-09-15T11:56:53.392Z,45.60
2018-09-15T11:59:21.687Z,46.86
2018-09-15T12:01:50.009Z,46.98
2018-09-15T12:04:18.294Z,47.70
2018-09-15T12:06:46.975Z,48.07
2018-09-15T12:09:15.271Z,47.50
2018-09-15T12:11:43.742Z,48.17
2018-09-15T12:14:12.467Z,48.37
2018-09-15T12:16:40.687Z,48.10
2018-09-15T12:19:08.998Z,47.37
2018-09-15T12:21:37.745Z,45.40
2018-09-15T12:24:06.303Z,45.03
2018-09-15T12:26:34.565Z,44.31
2018-09-15T12:29:02.875Z,43.25
2018-09-15T12:31:31.146Z,39.76
2018-09-15T12:33:59.452Z,33.71
2018-09-15T12:36:27.803Z,30.27
2018-09-15T12:38:56.127Z,28.92
2018-09-15T12:41:24.415Z,32.28
2018-09-15T12:43:52.728Z,32.92
2018-09-15T12:46:21.035Z,33.35
2018-09-15T12:48:49.341Z,33.63
2018-09-15T12:51:17.622Z,34.45
2018-09-15T12:53:46.211Z,33.84
2018-09-15T12:56:14.587Z,36.08
2018-09-15T12:58:43.002Z,37.94
2018-09-15T13:01:11.283Z,39.63
2018-09-15T13:03:40.015Z,40.50
2018-09-15T13:06:08.375Z,40.15
2018-09-15T13:08:36.658Z,41.86
2018-09-15T13:11:04.980Z,41.69
2018-09-15T13:13:33.303Z,41.85
2018-09-15T13:16:01.864Z,42.96
2018-09-15T13:18:30.182Z,42.88
2018-09-15T13:20:58.872Z,43.28
2018-09-15T13:23:27.151Z,43.04
2018-09-15T13:25:55.823Z,43.50
2018-09-15T13:28:24.087Z,44.10
2018-09-15T13:30:52.380Z,43.75
2018-09-15T13:33:20.658Z,43.20
2018-09-15T13:35:48.961Z,41.56
2018-09-15T13:38:17.263Z,40.93
2018-09-15T13:40:45.703Z,36.57
2018-09-15T13:43:13.983Z,30.55
2018-09-15T13:45:42.287Z,26.25
2018-09-15T13:48:10.566Z,26.13
2018-09-15T13:50:38.871Z,30.00
2018-09-15T13:53:07.479Z,35.58
2018-09-15T13:55:35.738Z,39.22
2018-09-15T13:58:04.027Z,39.92
2018-09-15T14:00:32.339Z,41.27
2018-09-15T14:03:00.618Z,40.11
2018-09-15T14:05:28.943Z,40.62
2018-09-15T14:07:57.615Z,40.83
2018-09-15T14:10:25.910Z,40.79
2018-09-15T14:12:54.192Z,41.37
2018-09-15T14:15:22.517Z,41.96
2018-09-15T14:17:50.810Z,42.89
2018-09-15T14:20:19.155Z,42.80
2018-09-15T14:22:47.448Z,43.35
2018-09-15T14:25:15.759Z,42.20
2018-09-15T14:27:44.598Z,42.97
2018-09-15T14:30:12.891Z,42.06
2018-09-15T14:32:41.171Z,42.42
2018-09-15T14:35:09.695Z,41.97
2018-09-15T14:37:37.975Z,42.01
2018-09-15T14:40:06.310Z,42.54
2018-09-15T14:42:34.614Z,42.23
2018-09-15T14:45:02.903Z,41.99
2018-09-15T14:47:31.203Z,42.54
2018-09-15T14:49:59.486Z,40.31
2018-09-15T14:52:27.800Z,37.14
2018-09-15T14:54:56.079Z,32.61
2018-09-15T14:57:24.404Z,31.17
2018-09-15T14:59:52.687Z,30.52
2018-09-15T15:02:20.995Z,30.64
2018-09-15T15:04:49.458Z,32.58
2018-09-15T15:07:17.758Z,34.70
2018-09-15T15:09:46.043Z,35.43
2018-09-15T15:12:14.355Z,37.92
2018-09-15T15:14:42.895Z,38.16
2018-09-15T15:17:11.200Z,38.85
2018-09-15T15:19:39.539Z,40.45
2018-09-15T15:22:07.851Z,39.15
2018-09-15T15:24:36.298Z,40.61
2018-09-15T15:27:04.627Z,41.31
2018-09-15T15:29:32.899Z,41.71
2018-09-15T15:32:01.242Z,40.81
2018-09-15T15:34:29.761Z,41.44
2018-09-15T15:36:58.190Z,41.93
2018-09-15T15:39:26.465Z,41.94
2018-09-15T15:41:54.769Z,41.21
2018-09-15T15:44:23.046Z,41.12
2018-09-15T15:46:51.945Z,41.85
2018-09-15T15:49:20.243Z,40.84
2018-09-15T15:51:48.555Z,41.07
2018-09-15T15:54:16.847Z,42.50
2018-09-15T15:56:46.139Z,43.15
2018-09-15T15:59:14.444Z,44.10
2018-09-15T16:01:42.740Z,44.99
2018-09-15T16:04:11.016Z,45.27
2018-09-15T16:06:39.347Z,45.82
2018-09-15T16:09:08.584Z,46.23
2018-09-15T16:11:37.827Z,46.72
2018-09-15T16:14:06.083Z,47.04
2018-09-15T16:16:34.399Z,47.51
2018-09-15T16:19:02.688Z,48.89
2018-09-15T16:21:31.226Z,47.96
2018-09-15T16:23:59.514Z,48.30
2018-09-15T16:26:27.778Z,48.34
2018-09-15T16:28:56.087Z,48.24
2018-09-15T16:31:24.986Z,47.90
2018-09-15T16:33:53.287Z,46.95
2018-09-15T16:36:21.556Z,46.67
2018-09-15T16:38:49.895Z,46.44
2018-09-15T16:41:18.166Z,46.17
2018-09-15T16:43:46.495Z,47.75
2018-09-15T16:46:14.774Z,46.92
2018-09-15T16:48:43.070Z,46.92
2018-09-15T16:51:11.363Z,47.46
2018-09-15T16:53:39.672Z,46.60
2018-09-15T16:56:07.951Z,47.75
2018-09-15T16:58:36.278Z,48.34
2018-09-15T17:01:04.591Z,49.10
2018-09-15T17:03:33.003Z,50.37
2018-09-15T17:06:01.237Z,49.74
2018-09-15T17:08:29.563Z,51.07
2018-09-15T17:10:57.838Z,52.14
2018-09-15T17:13:26.131Z,51.56
2018-09-15T17:15:54.453Z,53.14
2018-09-15T17:18:22.726Z,53.89
2018-09-15T17:20:51.027Z,55.52
2018-09-15T17:23:19.347Z,56.19
2018-09-15T17:25:47.632Z,57.11
2018-09-15T17:28:15.934Z,58.04
2018-09-15T17:30:44.576Z,57.76
2018-09-15T17:33:12.886Z,58.56
2018-09-15T17:35:41.186Z,59.32
2018-09-15T17:38:09.466Z,60.94
2018-09-15T17:40:38.130Z,61.29
2018-09-15T17:43:06.423Z,62.63
2018-09-15T17:45:34.734Z,62.98
2018-09-15T17:48:03.090Z,63.74
2018-09-15T17:50:31.391Z,64.68
2018-09-15T17:52:59.674Z,65.14
2018-09-15T17:55:27.966Z,65.70
2018-09-15T17:57:56.239Z,66.40
2018-09-15T18:00:24.564Z,67.63
2018-09-15T18:02:52.991Z,67.82
2018-09-15T18:05:21.282Z,67.91
2018-09-15T18:07:49.575Z,68.24
2018-09-15T18:10:17.868Z,68.82
2018-09-15T18:12:46.166Z,68.77
2018-09-15T18:15:14.457Z,69.96
2018-09-15T18:17:42.733Z,69.76
2018-09-15T18:20:11.022Z,70.01
2018-09-15T18:22:39.288Z,69.78
2018-09-15T18:25:07.630Z,70.10
2018-09-15T18:27:35.919Z,69.52
2018-09-15T18:30:04.347Z,70.16
2018-09-15T18:32:33.043Z,70.67
2018-09-15T18:35:01.802Z,70.83
2018-09-15T18:37:30.079Z,71.41
2018-09-15T18:39:58.375Z,71.53
2018-09-15T18:42:26.656Z,71.85
2018-09-15T18:44:54.962Z,72.21
2018-09-15T18:47:23.230Z,72.77
2018-09-15T18:49:51.523Z,72.90
2018-09-15T18:52:19.782Z,73.49
2018-09-15T18:54:48.098Z,73.76
2018-09-15T18:57:16.403Z,74.15
2018-09-15T18:59:44.742Z,73.64
2018-09-15T19:02:13.035Z,73.64
2018-09-15T19:04:41.703Z,73.85
2018-09-15T19:07:10.024Z,74.52
2018-09-15T19:09:38.310Z,74.68
2018-09-15T19:12:06.663Z,74.44
2018-09-15T19:14:34.952Z,74.29
2018-09-15T19:17:03.251Z,74.22
2018-09-15T19:19:31.520Z,74.82
2018-09-15T19:22:00.271Z,74.55
2018-09-15T19:24:28.643Z,74.75
2018-09-15T19:26:57.008Z,74.22
2018-09-15T19:29:25.275Z,73.95
2018-09-15T19:31:53.585Z,74.46
2018-09-15T19:34:22.271Z,74.73
2018-09-15T19:36:50.559Z,74.82
2018-09-15T19:39:18.838Z,75.11
2018-09-15T19:41:47.155Z,74.83
2018-09-15T19:44:15.419Z,74.98
2018-09-15T19:46:43.690Z,74.99
2018-09-15T19:49:12.450Z,74.75
2018-09-15T19:51:40.743Z,75.69
2018-09-15T19:54:09.042Z,75.86
2018-09-15T19:56:37.311Z,75.87
2018-09-15T19:59:05.643Z,76.02
2018-09-15T20:01:33.934Z,76.12
2018-09-15T20:04:02.232Z,76.39
2018-09-15T20:06:30.508Z,76.05
2018-09-15T20:08:58.795Z,76.88
2018-09-15T20:11:27.070Z,76.76
2018-09-15T20:13:55.379Z,76.23
2018-09-15T20:16:22.883Z,77.19
2018-09-15T20:18:50.161Z,76.66
2018-09-15T20:21:17.347Z,77.14
2018-09-15T20:23:45.663Z,76.31
2018-09-15T20:26:13.972Z,76.07
2018-09-15T20:28:42.263Z,76.47
2018-09-15T20:31:10.539Z,76.48
2018-09-15T20:33:38.826Z,77.20
2018-09-15T20:36:07.299Z,76.75
2018-09-15T20:38:35.607Z,77.31
2018-09-15T20:41:03.891Z,76.78
2018-09-15T20:43:32.188Z,76.52
2018-09-15T20:46:00.449Z,76.93
2018-09-15T20:48:28.741Z,76.82
2018-09-15T20:50:57.031Z,76.27
2018-09-15T20:53:25.339Z,76.55
2018-09-15T20:55:53.616Z,77.39
2018-09-15T20:58:21.956Z,77.60
2018-09-15T21:00:50.300Z,77.18
2018-09-15T21:03:18.619Z,77.76
2018-09-15T21:05:46.908Z,78.30
2018-09-15T21:08:15.289Z,78.46
2018-09-15T21:10:43.582Z,78.50
2018-09-15T21:13:11.879Z,78.60
2018-09-15T21:15:40.168Z,78.75
2018-09-15T21:18:08.491Z,78.64
2018-09-15T21:20:36.895Z,78.59
2018-09-15T21:23:05.238Z,79.20
2018-09-15T21:25:33.554Z,79.17
2018-09-15T21:28:01.896Z,79.29
2018-09-15T21:30:30.244Z,79.17
2018-09-15T21:32:58.949Z,78.94
2018-09-15T21:35:27.575Z,79.45
2018-09-15T21:37:55.863Z,78.74
2018-09-15T21:40:24.171Z,78.60
2018-09-15T21:42:52.456Z,79.26
2018-09-15T21:45:20.764Z,79.28
2018-09-15T21:47:49.057Z,79.14
2018-09-15T21:50:17.368Z,79.15
2018-09-15T21:52:45.646Z,80.39
2018-09-15T21:55:16.819Z,80.17
2018-09-15T21:57:45.132Z,80.12
2018-09-15T22:00:13.515Z,80.16
2018-09-15T22:02:41.808Z,80.29
2018-09-15T22:05:10.127Z,80.15
2018-09-15T22:07:38.452Z,80.08
2018-09-15T22:10:06.780Z,79.65
2018-09-15T22:12:35.075Z,79.28
2018-09-15T22:15:03.414Z,79.91
2018-09-15T22:17:31.719Z,80.12
2018-09-15T22:20:00.055Z,79.84
2018-09-15T22:22:28.491Z,80.10
2018-09-15T22:24:56.747Z,80.02
2018-09-15T22:27:25.035Z,79.68
2018-09-15T22:29:53.359Z,79.41
2018-09-15T22:32:21.646Z,80.14
2018-09-15T22:34:49.955Z,79.78
2018-09-15T22:37:18.267Z,80.48
2018-09-15T22:39:46.575Z,80.78
2018-09-15T22:42:14.899Z,80.65
2018-09-15T22:44:43.176Z,80.72
2018-09-15T22:47:11.559Z,81.96
2018-09-15T22:49:39.852Z,82.03
2018-09-15T22:52:08.170Z,82.65
2018-09-15T22:54:36.495Z,82.41
2018-09-15T22:57:04.879Z,82.54
2018-09-15T22:59:33.162Z,82.63
2018-09-15T23:02:01.483Z,82.31
2018-09-15T23:04:29.770Z,82.52
2018-09-15T23:06:58.087Z,81.92
2018-09-15T23:09:26.390Z,82.13
2018-09-15T23:11:54.687Z,82.37
2018-09-15T23:14:22.990Z,82.62
2018-09-15T23:16:51.307Z,82.74
2018-09-15T23:19:19.590Z,82.35
2018-09-15T23:21:47.899Z,81.62
2018-09-15T23:24:16.182Z,81.98
2018-09-15T23:26:44.492Z,82.43
2018-09-15T23:29:12.783Z,82.78
2018-09-15T23:31:41.348Z,82.62
2018-09-15T23:34:09.842Z,82.39
2018-09-15T23:36:38.159Z,82.76
2018-09-15T23:39:08.328Z,83.06
2018-09-15T23:41:37.531Z,83.31
2018-09-15T23:44:05.867Z,83.14
2018-09-15T23:46:34.175Z,83.78
2018-09-15T23:49:02.483Z,83.30
2018-09-15T23:51:30.758Z,83.62
2018-09-15T23:53:59.063Z,84.01
2018-09-15T23:56:28.355Z,83.81
2018-09-15T23:58:56.679Z,83.78
